Flight Track Log - Related Links

Times and Time Zones

All times are in EDT time to prevent confusion due to time zone crossing. See the N811DD flight status page for this flight to view local times or setup timezone preferences in your user account.

Time Position Orientation Groundspeed Altitude Reporting Facility
EDT Latitude Longitude Course Direction KTS MPH feet Rate Location/Type
Wed 02:26:16 PM 33.9167 -84.2833 90° East 138 159 2,800  Level Atlanta TRACON
Wed 02:27:16 PM 33.9167 -84.2333 90° East 165 190 4,100 600 Climbing Atlanta TRACON
Wed 02:28:16 PM 33.8833 -84.1833 129° Southeast 213 245 4,000 -50 Descending Atlanta TRACON
Wed 02:29:16 PM 33.8333 -84.1333 140° Southeast 209 241 4,000 50 Level Atlanta TRACON
Wed 02:30:16 PM 33.7833 -84.1000 151° Southeast 205 236 4,100  Climbing Atlanta TRACON
Wed 02:31:16 PM 33.7333 -84.0833 165° South 204 235 4,000  Descending Atlanta TRACON
Wed 02:32:16 PM 33.6833 -84.0667 164° South 213 245 4,100  Climbing Atlanta TRACON
Wed 02:33:16 PM 33.6167 -84.0667 180° South 213 245 4,000  Descending Atlanta TRACON
Wed 02:34:16 PM 33.5500 -84.0667 180° South 214 246 4,100 50 Climbing Atlanta TRACON
Wed 02:35:16 PM 33.5000 -84.0667 180° South 217 250 4,100 750 Level Atlanta TRACON
Wed 02:36:16 PM 33.4333 -84.0667 180° South 194 223 5,600 1,650 Climbing Atlanta TRACON
Wed 02:37:16 PM 33.4000 -84.0667 180° South 161 185 7,400 1,714 Climbing Atlanta TRACON
Wed 02:38:08 PM 33.3558 -84.0661 179° South 165 190 8,800 1,554 Climbing Atlanta Center
Wed 02:39:08 PM 33.3078 -84.0711 185° South 172 198 10,300 1,100 Climbing Atlanta Center
Wed 02:40:08 PM 33.2578 -84.0711 180° South 185 213 11,000 1,250 Climbing Atlanta Center
Wed 02:41:08 PM 33.1994 -84.0736 182° South 200 230 12,800 1,450 Climbing Atlanta Center
Wed 02:42:08 PM 33.1472 -84.0736 180° South 200 230 13,900 1,150 Climbing Atlanta Center
Wed 02:43:08 PM 33.0908 -84.0736 180° South 200 230 15,100 550 Climbing Atlanta Center
Wed 02:44:08 PM 33.0283 -84.0711 178° South 208 239 15,000 50 Descending Atlanta Center
Wed 02:45:08 PM 32.9594 -84.0661 177° South 233 268 15,200 1,250 Climbing Atlanta Center
Wed 02:46:08 PM 32.9114 -84.0339 151° Southeast 207 238 17,500 1,650 Climbing Atlanta Center
Wed 02:47:08 PM 32.8694 -83.9967 143° Southeast 201 231 18,500 1,050 Climbing Atlanta Center
Wed 02:48:08 PM 32.8319 -83.9547 137° Southeast 195 224 19,600 1,050 Climbing Atlanta Center
Wed 02:49:08 PM 32.7903 -83.9128 140° Southeast 195 224 20,600 950 Climbing Atlanta Center
Wed 02:50:08 PM 32.7464 -83.8708 141° Southeast 195 224 21,500 900 Climbing Atlanta Center
Wed 02:51:08 PM 32.7044 -83.8242 137° Southeast 200 230 22,400 900 Climbing Atlanta Center
Wed 02:52:08 PM 32.6606 -83.7822 141° Southeast 200 230 23,300 850 Climbing Atlanta Center
Wed 02:53:08 PM 32.6186 -83.7381 138° Southeast 200 230 24,100 800 Climbing Atlanta Center
Wed 02:54:08 PM 32.5728 -83.6961 142° Southeast 205 236 24,900 800 Climbing Atlanta Center
Wed 02:55:08 PM 32.5286 -83.6472 137° Southeast 205 236 25,700 700 Climbing Atlanta Center
Wed 02:56:08 PM 32.4847 -83.6031 140° Southeast 205 236 26,300 600 Climbing Atlanta Center
Wed 02:57:08 PM 32.4367 -83.5564 141° Southeast 210 242 26,900 600 Climbing Atlanta Center
Wed 02:58:08 PM 32.3906 -83.5100 140° Southeast 215 247 27,500 550 Climbing Atlanta Center
Wed 02:59:08 PM 32.3442 -83.4636 140° Southeast 215 247 28,000 250 Climbing Atlanta Center
Wed 03:00:08 PM 32.2939 -83.4122 139° Southeast 220 253 28,000  Level Atlanta Center
Wed 03:01:08 PM 32.2394 -83.3586 140° Southeast 233 268 28,000  Level Atlanta Center
Wed 03:02:08 PM 32.1869 -83.3025 138° Southeast 245 282 28,000  Level Atlanta Center
Wed 03:03:24 PM 32.1158 -83.2336 141° Southeast 267 307 28,000  Level Jacksonville Center
Wed 03:04:23 PM 32.0597 -83.1769 139° Southeast 267 307 28,000  Level Jacksonville Center
Wed 03:05:23 PM 32.0036 -83.1203 139° Southeast 267 307 28,000  Level Jacksonville Center
Wed 03:06:24 PM 31.9492 -83.0664 140° Southeast 267 307 28,000  Level Jacksonville Center
Wed 03:07:23 PM 31.8931 -83.0100 140° Southeast 267 307 28,000  Level Jacksonville Center
Wed 03:08:23 PM 31.8344 -82.9536 141° Southeast 267 307 28,000  Level Jacksonville Center
Wed 03:09:23 PM 31.7803 -82.9000 140° Southeast 262 302 28,000  Level Jacksonville Center
Wed 03:10:23 PM 31.7239 -82.8436 140° Southeast 262 302 28,000  Level Jacksonville Center
Wed 03:11:23 PM 31.6653 -82.7875 141° Southeast 262 302 28,000  Level Jacksonville Center
Wed 03:12:24 PM 31.6111 -82.7342 140° Southeast 262 302 28,000  Level Jacksonville Center
Wed 03:13:24 PM 31.5547 -82.6806 141° Southeast 262 302 28,000  Level Jacksonville Center
Wed 03:14:23 PM 31.4961 -82.6222 140° Southeast 257 296 28,000  Level Jacksonville Center
Wed 03:15:23 PM 31.4417 -82.5686 140° Southeast 257 296 28,000  Level Jacksonville Center
Wed 03:16:23 PM 31.3831 -82.5131 141° Southeast 257 296 28,000  Level Jacksonville Center
Wed 03:17:23 PM 31.3306 -82.4669 143° Southeast 257 296 28,000  Level Jacksonville Center
Wed 03:18:23 PM 31.2761 -82.4089 138° Southeast 257 296 28,000  Level Jacksonville Center
Wed 03:19:24 PM 31.2175 -82.3556 142° Southeast 262 302 28,000  Level Jacksonville Center
Wed 03:20:24 PM 31.1608 -82.3003 140° Southeast 262 302 28,000  Level Jacksonville Center
Wed 03:21:24 PM 31.1042 -82.2472 141° Southeast 262 302 28,000  Level Jacksonville Center
Wed 03:22:23 PM 31.0456 -82.1894 140° Southeast 262 302 28,000  Level Jacksonville Center
Wed 03:23:23 PM 30.9867 -82.1342 141° Southeast 262 302 28,000  Level Jacksonville Center
Wed 03:24:23 PM 30.9300 -82.0789 140° Southeast 262 302 28,000  Level Jacksonville Center
Wed 03:25:23 PM 30.8733 -82.0236 140° Southeast 262 302 28,000  Level Jacksonville Center
Wed 03:26:23 PM 30.8186 -81.9686 139° Southeast 262 302 28,000  Level Jacksonville Center
Wed 03:27:24 PM 30.7597 -81.9158 142° Southeast 262 302 28,000  Level Jacksonville Center
Wed 03:28:23 PM 30.6986 -81.8561 140° Southeast 262 302 28,000  Level Jacksonville Center
Wed 03:29:24 PM 30.6439 -81.7989 138° Southeast 262 302 28,000  Level Jacksonville Center
Wed 03:30:24 PM 30.5850 -81.7439 141° Southeast 262 302 28,000  Level Jacksonville Center
Wed 03:31:23 PM 30.5281 -81.6917 142° Southeast 262 302 28,000  Level Jacksonville Center
Wed 03:32:23 PM 30.4711 -81.6344 139° Southeast 262 302 28,000  Level Jacksonville Center
Wed 03:33:24 PM 30.4142 -81.5822 142° Southeast 262 302 28,000  Level Jacksonville Center
Wed 03:34:24 PM 30.3572 -81.5275 140° Southeast 262 302 28,000  Level Jacksonville Center
Wed 03:35:24 PM 30.2922 -81.4925 155° Southeast 262 302 28,000  Level Jacksonville Center
Wed 03:36:23 PM 30.2189 -81.4622 160° South 267 307 28,000  Level Jacksonville Center
Wed 03:37:24 PM 30.1475 -81.4344 161° South 273 314 28,000  Level Jacksonville Center
Wed 03:38:24 PM 30.0783 -81.4067 161° South 268 308 28,000  Level Jacksonville Center
Wed 03:39:23 PM 30.0092 -81.3792 161° South 268 308 28,000  Level Jacksonville Center
Wed 03:40:24 PM 29.9378 -81.3514 161° South 268 308 28,000  Level Jacksonville Center
Wed 03:41:23 PM 29.8664 -81.3261 163° South 268 308 28,000  Level Jacksonville Center
Wed 03:42:24 PM 29.7972 -81.2961 159° South 268 308 28,000  Level Jacksonville Center
Wed 03:43:23 PM 29.7258 -81.2686 162° South 268 308 28,000  Level Jacksonville Center
Wed 03:44:24 PM 29.6567 -81.2411 161° South 268 308 28,000  Level Jacksonville Center
Wed 03:46:48 PM 29.4919 -81.1747 161° South 266 306 28,000  Level Miami Center
Wed 03:47:50 PM 29.4175 -81.1461 161° South 268 308 28,000  Level Miami Center
Wed 03:48:52 PM 29.3478 -81.1192 161° South 268 308 28,000  Level Miami Center
Wed 03:49:53 PM 29.2786 -81.0872 158° South 268 308 28,000  Level Miami Center
Wed 03:50:55 PM 29.2153 -81.0431 149° Southeast 267 307 28,000  Level Miami Center
Wed 03:51:57 PM 29.1519 -80.9975 148° Southeast 268 308 28,000  Level Miami Center
Wed 03:52:59 PM 29.0875 -80.9536 149° Southeast 268 308 28,000  Level Miami Center
Wed 03:54:01 PM 29.0244 -80.9081 148° Southeast 269 310 28,000  Level Miami Center
Wed 03:55:03 PM 28.9467 -80.8547 149° Southeast 269 310 28,000  Level Miami Center
Wed 03:56:05 PM 28.8797 -80.8083 149° Southeast 269 310 28,000  Level Miami Center
Wed 03:57:06 PM 28.8128 -80.7611 148° Southeast 270 311 28,000  Level Miami Center
Wed 03:58:08 PM 28.7497 -80.7186 149° Southeast 270 311 28,000  Level Miami Center
Wed 03:59:10 PM 28.6825 -80.6722 149° Southeast 270 311 28,000  Level Miami Center
Wed 04:00:12 PM 28.6156 -80.6256 149° Southeast 269 310 28,000  Level Miami Center
Wed 04:01:14 PM 28.5483 -80.5792 149° Southeast 270 311 28,000  Level Miami Center
Wed 04:02:16 PM 28.4861 -80.5367 149° Southeast 271 312 28,000  Level Miami Center
Wed 04:03:18 PM 28.4181 -80.4897 149° Southeast 273 314 28,000  Level Miami Center
Wed 04:04:19 PM 28.3506 -80.4431 149° Southeast 271 312 28,000  Level Miami Center
Wed 04:05:21 PM 28.2836 -80.3975 149° Southeast 271 312 28,000 -97 Level Miami Center
Wed 04:06:23 PM 28.2153 -80.3508 149° Southeast 271 312 27,800 -823 Descending Miami Center
Wed 04:07:25 PM 28.1483 -80.3061 149° Southeast 288 331 26,300 -1,500 Descending Miami Center
Wed 04:08:27 PM 28.0750 -80.2558 149° Southeast 288 331 24,700 -1,548 Descending Miami Center
Wed 04:09:29 PM 28.0031 -80.2069 149° Southeast 289 333 23,100 -1,561 Descending Miami Center
Wed 04:10:30 PM 27.9317 -80.1575 149° Southeast 288 331 21,500 -1,610 Descending Miami Center
Wed 04:11:32 PM 27.8589 -80.1097 150° Southeast 289 333 19,800 -1,500 Descending Miami Center
Wed 04:12:34 PM 27.7950 -80.0664 149° Southeast 287 330 18,400 -1,306 Descending Miami Center
Wed 04:13:36 PM 27.7222 -80.0211 151° Southeast 280 322 17,100 -1,016 Descending Miami Center
Wed 04:14:38 PM 27.6422 -80.0167 177° South 278 320 16,300 -774 Descending Miami Center
Wed 04:15:40 PM 27.5633 -80.0167 180° South 272 313 15,500 -774 Descending Miami Center
Wed 04:16:42 PM 27.4817 -80.0156 179° South 278 320 14,700 -823 Descending Miami Center
Wed 04:17:44 PM 27.3981 -80.0156 180° South 283 326 13,800 -823 Descending Miami Center
Wed 04:18:46 PM 27.3233 -80.0142 179° South 282 325 13,000 -823 Descending Miami Center
Wed 04:19:48 PM 27.2425 -80.0142 180° South 281 323 12,100 -484 Descending Miami Center
Wed 04:20:50 PM 27.1653 -80.0192 183° South 266 306 12,000 -242 Descending Miami Center
Wed 04:21:52 PM 27.0900 -80.0108 174° South 262 302 11,600 -532 Descending Miami Center
Wed 04:22:54 PM 27.0131 -80.0022 174° South 263 303 10,900 -629 Descending Miami Center
Wed 04:23:56 PM 26.9417 -79.9950 175° South 263 303 10,300 -581 Descending Miami Center
Wed 04:24:58 PM 26.8653 -79.9867 174° South 263 303 9,700 -581 Descending Miami Center
Wed 04:26:00 PM 26.7853 -79.9778 174° South 266 306 9,100 -581 Descending Miami Center
Wed 04:27:02 PM 26.7111 -79.9697 174° South 266 306 8,500 -600 Descending Miami Center
Wed 04:27:40 PM 26.6661 -79.9664 176° South 266 306 8,100 -689 Descending Miami Center
Wed 04:28:03 PM 26.6325 -79.9608 172° South 265 305 7,800 -635 Descending Miami Center
Wed 04:29:05 PM 26.5603 -79.9536 175° South 260 299 7,200 -727 Descending Miami Center
Wed 04:29:42 PM 26.5144 -79.9481 174° South 260 299 6,600 -1,065 Descending Miami Center
Wed 04:30:07 PM 26.4883 -79.9458 176° South 259 298 6,100 -1,200 Descending Miami Center
Wed 04:32:00 PM 26.3606 -79.9724 193° South  Level FlightAware Approximate
Wed 04:39:00 PM 25.8935 -80.1059 200° South  Level FlightAware Approximate
Wed 04:40:00 PM 25.8274 -80.1279 194° South  Level FlightAware Approximate
Wed 04:41:00 PM 25.7605 -80.1470 194° South  Level FlightAware Approximate
Wed 04:42:00 PM 25.8294 -80.1420 13° North  Level Estimated
Wed 04:43:00 PM 25.8983 -80.1369 North  Level Estimated
Wed 04:44:00 PM 25.9673 -80.1333 North  Level FlightAware Approximate
Wed 04:45:00 PM 26.0362 -80.1279 North  Level Estimated
Wed 04:46:00 PM 26.1051 -80.1224 North  Level Estimated
Wed 04:47:00 PM 26.1737 -80.1136 North  Level FlightAware Approximate
Wed 04:48:00 PM 26.2428 -80.1114 10° North  Level Estimated
Wed 04:49:00 PM 26.2474 -80.1112 133° Southeast  Level Estimated
Wed 04:50:00 PM 26.2474 -80.1112 10° North  Level Estimated
Wed 04:51:00 PM 26.2474 -80.1112 144° Southeast  Level Estimated
Wed 04:52:00 PM 26.2474 -80.1112 10° North  Level Estimated
Wed 04:53:00 PM 26.2474 -80.1112 144° Southeast  Level Estimated
Wed 04:54:00 PM 26.2474 -80.1112 10° North  Level Estimated
Wed 04:55:00 PM 26.2474 -80.1112 144° Southeast  Level Estimated
Wed 04:56:00 PM 26.2474 -80.1112 10° North  Level Estimated
Wed 04:57:00 PM 26.2474 -80.1112 144° Southeast  Level Estimated
Wed 04:58:00 PM 26.2474 -80.1112 10° North  Level Estimated
Wed 04:59:00 PM 26.2474 -80.1112 144° Southeast  Level Estimated
Wed 05:00:00 PM 26.2474 -80.1112 10° North  Level Estimated
Wed 05:01:00 PM 26.2474 -80.1112 144° Southeast  Level Estimated
Wed 05:02:00 PM 26.2474 -80.1112 10° North  Level Estimated
Wed 05:03:00 PM 26.2474 -80.1112 144° Southeast  Level Estimated

Login

Don't have an account? Register now (free) for customized features, flight alerts, and more!